createdAt,value
2019-03-16T00:02:07.261Z,9.04
2019-03-16T00:06:12.378Z,8.94
2019-03-16T00:10:19.913Z,8.92
2019-03-16T00:14:25.096Z,8.84
2019-03-16T00:18:30.202Z,8.84
2019-03-16T00:22:35.407Z,8.72
2019-03-16T00:26:40.493Z,8.71
2019-03-16T00:30:45.565Z,8.67
2019-03-16T00:34:50.765Z,8.79
2019-03-16T00:38:55.873Z,8.72
2019-03-16T00:43:00.993Z,8.78
2019-03-16T00:47:06.220Z,8.76
2019-03-16T00:51:12.037Z,8.70
2019-03-16T00:55:17.572Z,8.77
2019-03-16T00:59:22.693Z,8.79
2019-03-16T01:03:27.851Z,8.76
2019-03-16T01:07:32.936Z,8.65
2019-03-16T01:11:38.377Z,8.67
2019-03-16T01:15:43.584Z,8.62
2019-03-16T01:19:48.717Z,8.59
2019-03-16T01:23:53.864Z,8.53
2019-03-16T01:27:59.184Z,8.39
2019-03-16T01:32:04.285Z,8.06
2019-03-16T01:36:09.433Z,7.91
2019-03-16T01:40:14.519Z,7.84
2019-03-16T01:44:19.647Z,7.72
2019-03-16T01:48:24.739Z,7.67
2019-03-16T01:52:29.842Z,7.68
2019-03-16T01:56:34.940Z,7.70
2019-03-16T02:00:40.084Z,7.68
2019-03-16T02:04:45.201Z,7.63
2019-03-16T02:08:50.302Z,7.65
2019-03-16T02:12:55.448Z,7.42
2019-03-16T02:17:00.886Z,7.41
2019-03-16T02:21:06.071Z,7.38
2019-03-16T02:25:11.288Z,7.38
2019-03-16T02:29:16.460Z,7.40
2019-03-16T02:33:21.594Z,7.40
2019-03-16T02:37:26.744Z,7.47
2019-03-16T02:41:31.907Z,7.46
2019-03-16T02:45:37.577Z,7.47
2019-03-16T02:49:42.806Z,7.48
2019-03-16T02:53:47.992Z,7.43
2019-03-16T02:57:53.203Z,7.47
2019-03-16T03:01:58.266Z,7.42
2019-03-16T03:06:03.389Z,7.56
2019-03-16T03:10:08.625Z,7.64
2019-03-16T03:14:44.966Z,7.61
2019-03-16T03:18:50.412Z,7.65
2019-03-16T03:22:55.697Z,7.70
2019-03-16T03:27:00.924Z,7.63
2019-03-16T03:31:06.134Z,7.58
2019-03-16T03:35:11.364Z,7.54
2019-03-16T03:39:16.671Z,7.56
2019-03-16T03:43:21.817Z,7.59
2019-03-16T03:47:27.014Z,7.56
2019-03-16T03:51:32.505Z,7.53
2019-03-16T03:55:37.905Z,7.52
2019-03-16T03:59:43.018Z,7.46
2019-03-16T04:03:48.105Z,7.37
2019-03-16T04:07:53.315Z,7.37
2019-03-16T04:11:58.403Z,7.41
2019-03-16T04:16:03.608Z,7.40
2019-03-16T04:20:09.974Z,7.36
2019-03-16T04:24:18.774Z,7.39
2019-03-16T04:28:23.872Z,7.37
2019-03-16T04:32:28.953Z,7.38
2019-03-16T04:36:34.309Z,7.34
2019-03-16T04:40:49.786Z,7.26
2019-03-16T04:44:55.021Z,7.22
2019-03-16T04:49:00.293Z,7.25
2019-03-16T04:53:05.479Z,7.17
2019-03-16T04:57:10.684Z,7.21
2019-03-16T05:01:15.927Z,7.14
2019-03-16T05:05:21.126Z,7.14
2019-03-16T05:09:26.393Z,6.97
2019-03-16T05:13:31.520Z,6.97
2019-03-16T05:17:36.664Z,7.03
2019-03-16T05:21:41.884Z,7.03
2019-03-16T05:25:46.991Z,7.12
2019-03-16T05:29:52.002Z,6.99
2019-03-16T05:33:57.069Z,7.09
2019-03-16T05:38:02.202Z,7.08
2019-03-16T05:42:07.299Z,6.97
2019-03-16T05:46:12.999Z,7.06
2019-03-16T05:50:18.205Z,7.02
2019-03-16T05:54:23.641Z,7.03
2019-03-16T05:58:28.818Z,7.13
2019-03-16T06:02:33.945Z,7.13
2019-03-16T06:06:39.123Z,7.22
2019-03-16T06:10:44.263Z,7.20
2019-03-16T06:14:49.372Z,7.32
2019-03-16T06:18:54.558Z,7.43
2019-03-16T06:22:59.681Z,7.49
2019-03-16T06:27:04.869Z,7.62
2019-03-16T06:31:09.983Z,7.78
2019-03-16T06:35:24.489Z,8.03
2019-03-16T06:39:22.006Z,8.72
2019-03-16T06:43:27.210Z,8.95
2019-03-16T06:47:32.357Z,9.10
2019-03-16T06:51:37.619Z,9.35
2019-03-16T06:55:42.726Z,9.50
2019-03-16T06:59:47.812Z,9.44
2019-03-16T07:03:52.941Z,9.50
2019-03-16T07:07:58.389Z,9.49
2019-03-16T07:12:03.562Z,9.49
2019-03-16T07:16:08.803Z,9.54
2019-03-16T07:20:14.055Z,9.56
2019-03-16T07:24:21.396Z,9.58
2019-03-16T07:28:26.640Z,9.57
2019-03-16T07:32:31.779Z,9.54
2019-03-16T07:36:36.910Z,9.50
2019-03-16T07:40:42.074Z,9.47
2019-03-16T07:44:47.305Z,9.55
2019-03-16T07:48:53.250Z,9.57
2019-03-16T07:52:58.423Z,9.56
2019-03-16T07:57:03.592Z,9.59
2019-03-16T08:01:09.014Z,9.59
2019-03-16T08:05:18.818Z,9.65
2019-03-16T08:09:22.125Z,9.64
2019-03-16T08:13:27.324Z,9.56
2019-03-16T08:17:32.596Z,9.52
2019-03-16T08:21:37.774Z,9.75
2019-03-16T08:25:42.969Z,9.88
2019-03-16T08:29:48.219Z,9.92
2019-03-16T08:33:53.384Z,9.85
2019-03-16T08:37:58.856Z,9.85
2019-03-16T08:42:03.963Z,9.74
2019-03-16T08:46:09.151Z,9.64
2019-03-16T08:50:15.529Z,9.66
2019-03-16T08:54:22.019Z,9.73
2019-03-16T08:58:27.150Z,9.80
2019-03-16T09:02:32.304Z,9.84
2019-03-16T09:06:37.677Z,9.79
2019-03-16T09:10:44.267Z,9.73
2019-03-16T09:14:49.363Z,9.75
2019-03-16T09:18:54.779Z,9.86
2019-03-16T09:22:59.886Z,9.93
2019-03-16T09:27:05.101Z,10.46
2019-03-16T09:31:10.289Z,10.85
2019-03-16T09:35:15.626Z,11.20
2019-03-16T09:39:20.780Z,11.28
2019-03-16T09:43:25.923Z,11.10
2019-03-16T09:47:31.353Z,11.07
2019-03-16T09:51:36.542Z,11.05
2019-03-16T09:55:41.657Z,11.07
2019-03-16T09:59:46.766Z,11.15
2019-03-16T10:03:51.958Z,11.21
2019-03-16T10:07:57.106Z,11.20
2019-03-16T10:12:02.499Z,11.16
2019-03-16T10:16:08.672Z,11.06
2019-03-16T10:20:13.832Z,11.10
2019-03-16T10:24:18.938Z,11.03
2019-03-16T10:28:27.052Z,10.94
2019-03-16T10:32:32.136Z,10.84
2019-03-16T10:36:37.564Z,11.20
2019-03-16T10:40:42.735Z,11.20
2019-03-16T10:44:47.988Z,11.35
2019-03-16T10:48:53.350Z,11.26
2019-03-16T10:52:59.656Z,11.30
2019-03-16T10:57:04.901Z,11.25
2019-03-16T11:01:10.025Z,11.24
2019-03-16T11:05:15.146Z,11.08
2019-03-16T11:09:20.249Z,11.00
2019-03-16T11:13:25.421Z,10.99
2019-03-16T11:17:30.581Z,10.93
2019-03-16T11:21:35.716Z,10.85
2019-03-16T11:25:40.820Z,10.84
2019-03-16T11:29:46.044Z,11.05
2019-03-16T11:33:51.117Z,11.33
2019-03-16T11:37:58.004Z,11.22
2019-03-16T11:42:03.196Z,11.10
2019-03-16T11:46:08.316Z,11.06
2019-03-16T11:50:13.408Z,10.98
2019-03-16T11:54:18.558Z,10.88
2019-03-16T11:58:23.970Z,10.76
2019-03-16T12:02:29.328Z,10.69
2019-03-16T12:06:34.536Z,10.56
2019-03-16T12:10:39.934Z,10.68
2019-03-16T12:14:46.081Z,10.69
2019-03-16T12:18:52.492Z,10.68
2019-03-16T12:22:59.273Z,10.75
2019-03-16T12:27:04.428Z,10.73
2019-03-16T12:31:09.547Z,10.73
2019-03-16T12:35:14.675Z,10.79
2019-03-16T12:39:20.733Z,10.85
2019-03-16T12:43:25.847Z,10.84
2019-03-16T12:47:32.963Z,10.90
2019-03-16T12:51:39.360Z,10.94
2019-03-16T12:55:44.545Z,10.94
2019-03-16T12:59:49.703Z,10.94
2019-03-16T13:03:54.912Z,11.04
2019-03-16T13:08:00.041Z,11.01
2019-03-16T13:12:05.184Z,11.09
2019-03-16T13:16:10.333Z,11.09
2019-03-16T13:20:15.749Z,11.08
2019-03-16T13:24:20.990Z,11.00
2019-03-16T13:28:26.102Z,10.99
2019-03-16T13:32:31.213Z,10.93
2019-03-16T13:36:36.432Z,10.92
2019-03-16T13:40:41.530Z,10.76
2019-03-16T13:44:46.638Z,10.77
2019-03-16T13:48:51.758Z,10.81
2019-03-16T13:52:56.899Z,10.91
2019-03-16T13:57:02.072Z,10.91
2019-03-16T14:01:07.668Z,10.95
2019-03-16T14:05:12.889Z,10.94
2019-03-16T14:09:18.344Z,10.92
2019-03-16T14:13:23.530Z,10.96
2019-03-16T14:17:28.709Z,10.96
2019-03-16T14:21:33.855Z,10.94
2019-03-16T14:25:39.077Z,10.91
2019-03-16T14:29:44.254Z,10.90
2019-03-16T14:33:52.071Z,10.86
2019-03-16T14:37:57.284Z,10.87
2019-03-16T14:42:02.799Z,10.92
2019-03-16T14:46:07.947Z,10.94
2019-03-16T14:50:16.406Z,11.01
2019-03-16T14:54:22.085Z,11.07
2019-03-16T14:58:32.122Z,11.13
2019-03-16T15:02:37.284Z,11.12
2019-03-16T15:06:42.500Z,11.21
2019-03-16T15:10:49.031Z,11.17
2019-03-16T15:14:55.089Z,11.08
2019-03-16T15:19:00.259Z,11.06
2019-03-16T15:23:05.480Z,11.10
2019-03-16T15:27:10.642Z,11.07
2019-03-16T15:31:15.818Z,11.15
2019-03-16T15:35:21.023Z,11.15
2019-03-16T15:39:27.201Z,11.14
2019-03-16T15:43:32.310Z,11.10
2019-03-16T15:47:37.473Z,11.08
2019-03-16T15:51:42.546Z,11.14
2019-03-16T15:55:47.660Z,11.21
2019-03-16T15:59:52.825Z,11.17
2019-03-16T16:03:57.922Z,11.17
2019-03-16T16:08:03.028Z,11.14
2019-03-16T16:12:08.197Z,11.11
2019-03-16T16:16:13.299Z,11.09
2019-03-16T16:20:18.427Z,11.12
2019-03-16T16:24:23.592Z,11.12
2019-03-16T16:28:30.769Z,11.09
2019-03-16T16:32:36.071Z,11.10
2019-03-16T16:36:41.256Z,11.11
2019-03-16T16:40:46.564Z,11.15
2019-03-16T16:44:51.748Z,11.10
2019-03-16T16:49:01.055Z,11.11
2019-03-16T16:53:07.498Z,11.08
2019-03-16T16:57:12.630Z,11.03
2019-03-16T17:01:28.803Z,11.02
2019-03-16T17:05:24.590Z,10.95
2019-03-16T17:09:29.732Z,11.10
2019-03-16T17:13:34.918Z,10.96
2019-03-16T17:17:40.005Z,10.96
2019-03-16T17:21:45.426Z,10.88
2019-03-16T17:25:50.560Z,10.82
2019-03-16T17:29:55.832Z,10.81
2019-03-16T17:34:00.990Z,10.77
2019-03-16T17:38:06.211Z,10.66
2019-03-16T17:42:11.415Z,10.72
2019-03-16T17:46:20.440Z,10.74
2019-03-16T17:50:25.636Z,10.70
2019-03-16T17:54:30.740Z,10.60
2019-03-16T17:58:36.005Z,10.61
2019-03-16T18:02:50.522Z,10.52
2019-03-16T18:06:47.926Z,10.62
2019-03-16T18:10:53.022Z,10.67
2019-03-16T18:14:58.165Z,10.68
2019-03-16T18:19:03.268Z,10.69
2019-03-16T18:23:08.447Z,10.66
2019-03-16T18:27:15.540Z,10.60
2019-03-16T18:31:22.083Z,10.61
2019-03-16T18:35:33.925Z,10.59
2019-03-16T18:39:40.124Z,10.46
2019-03-16T18:43:45.216Z,10.40
2019-03-16T18:47:50.428Z,10.34
2019-03-16T18:51:55.559Z,10.31
2019-03-16T18:56:00.658Z,10.26
2019-03-16T19:00:07.282Z,10.32
2019-03-16T19:04:12.502Z,10.35
2019-03-16T19:08:19.264Z,10.37
2019-03-16T19:12:24.477Z,10.44
2019-03-16T19:16:29.578Z,10.44
2019-03-16T19:20:34.739Z,10.45
2019-03-16T19:24:40.576Z,10.57
2019-03-16T19:28:45.635Z,10.60
2019-03-16T19:32:50.823Z,10.63
2019-03-16T19:36:56.018Z,10.60
2019-03-16T19:41:01.119Z,10.55
2019-03-16T19:45:06.720Z,10.57
2019-03-16T19:49:14.345Z,10.58
2019-03-16T19:53:19.702Z,10.50
2019-03-16T19:57:24.806Z,10.50
2019-03-16T20:01:29.962Z,10.46
2019-03-16T20:05:36.619Z,10.43
2019-03-16T20:09:41.730Z,10.44
2019-03-16T20:13:46.930Z,10.44
2019-03-16T20:17:52.074Z,10.45
2019-03-16T20:21:57.265Z,10.36
2019-03-16T20:26:02.521Z,10.45
2019-03-16T20:30:08.189Z,10.50
2019-03-16T20:34:13.296Z,10.48
2019-03-16T20:38:18.511Z,10.48
2019-03-16T20:42:27.969Z,10.54
2019-03-16T20:46:34.068Z,10.49
2019-03-16T20:50:39.175Z,10.72
2019-03-16T20:54:44.389Z,10.80
2019-03-16T20:58:49.558Z,10.73
2019-03-16T21:02:54.678Z,10.70
2019-03-16T21:06:59.795Z,10.72
2019-03-16T21:11:04.889Z,10.72
2019-03-16T21:15:10.451Z,10.67
2019-03-16T21:19:15.650Z,10.75
2019-03-16T21:23:20.788Z,10.74
2019-03-16T21:27:25.974Z,10.74
2019-03-16T21:31:31.289Z,10.74
2019-03-16T21:35:36.453Z,10.69
2019-03-16T21:39:41.682Z,10.71
2019-03-16T21:43:46.789Z,10.62
2019-03-16T21:47:59.915Z,10.70
2019-03-16T21:51:58.874Z,10.70
2019-03-16T21:56:03.951Z,10.73
2019-03-16T22:00:10.883Z,10.74
2019-03-16T22:04:15.912Z,10.73
2019-03-16T22:08:21.024Z,10.76
2019-03-16T22:12:26.387Z,10.73
2019-03-16T22:16:31.546Z,10.74
2019-03-16T22:20:36.756Z,10.70
2019-03-16T22:24:41.853Z,10.78
2019-03-16T22:28:46.975Z,10.85
2019-03-16T22:32:52.141Z,10.90
2019-03-16T22:36:57.262Z,10.83
2019-03-16T22:41:02.398Z,10.79
2019-03-16T22:45:07.595Z,10.83
2019-03-16T22:49:12.769Z,10.84
2019-03-16T22:53:17.915Z,10.85
2019-03-16T22:57:29.846Z,10.88
2019-03-16T23:01:36.605Z,10.82
2019-03-16T23:05:41.695Z,10.81
2019-03-16T23:09:46.821Z,10.85
2019-03-16T23:13:51.904Z,10.84
2019-03-16T23:17:58.637Z,10.88
2019-03-16T23:22:04.095Z,10.85
2019-03-16T23:26:09.215Z,10.82
2019-03-16T23:30:14.361Z,10.88
2019-03-16T23:34:19.719Z,10.84
2019-03-16T23:38:24.780Z,10.85
2019-03-16T23:42:29.926Z,10.85
2019-03-16T23:46:35.081Z,10.94
2019-03-16T23:50:40.290Z,10.90
2019-03-16T23:54:45.476Z,10.88
2019-03-16T23:58:50.656Z,10.87
